createdAt,value
2023-03-16T00:02:13.651Z,15.90
2023-03-16T00:05:15.991Z,20.23
2023-03-16T00:08:19.357Z,19.52
2023-03-16T00:11:21.757Z,16.27
2023-03-16T00:14:24.090Z,14.75
2023-03-16T00:17:26.887Z,16.60
2023-03-16T00:20:29.446Z,12.70
2023-03-16T00:23:35.863Z,18.80
2023-03-16T00:26:38.285Z,17.80
2023-03-16T00:29:48.414Z,19.15
2023-03-16T00:32:54.224Z,17.17
2023-03-16T00:36:04.107Z,14.27
2023-03-16T00:39:07.076Z,13.52
2023-03-16T00:42:14.498Z,15.10
2023-03-16T00:45:17.323Z,13.57
2023-03-16T00:48:21.630Z,12.30
2023-03-16T00:51:24.402Z,17.08
2023-03-16T00:54:27.177Z,16.92
2023-03-16T00:57:30.464Z,11.90
2023-03-16T01:00:34.107Z,11.10
2023-03-16T01:03:38.586Z,22.45
2023-03-16T01:06:42.984Z,15.50
2023-03-16T01:09:45.722Z,16.95
2023-03-16T01:12:48.259Z,16.37
2023-03-16T01:15:51.808Z,15.13
2023-03-16T01:18:54.396Z,11.50
2023-03-16T01:21:58.446Z,18.67
2023-03-16T01:25:00.758Z,12.43
2023-03-16T01:28:03.764Z,12.77
2023-03-16T01:31:09.501Z,9.30
2023-03-16T01:34:16.789Z,15.45
2023-03-16T01:37:19.624Z,13.73
2023-03-16T01:40:34.635Z,14.82
2023-03-16T01:43:38.982Z,15.07
2023-03-16T01:46:42.933Z,15.30
2023-03-16T01:49:48.344Z,16.25
2023-03-16T01:52:52.300Z,18.30
2023-03-16T01:55:55.519Z,13.05
2023-03-16T01:59:00.107Z,8.87
2023-03-16T02:02:03.842Z,16.58
2023-03-16T02:05:17.757Z,13.93
2023-03-16T02:08:23.018Z,15.98
2023-03-16T02:11:26.132Z,17.23
2023-03-16T02:14:35.762Z,16.10
2023-03-16T02:17:38.801Z,17.13
2023-03-16T02:21:18.118Z,16.75
2023-03-16T02:24:20.659Z,13.88
2023-03-16T02:28:02.446Z,13.05
2023-03-16T02:31:07.849Z,21.83
2023-03-16T02:34:10.406Z,19.67
2023-03-16T02:37:13.125Z,19.38
2023-03-16T02:40:27.981Z,14.15
2023-03-16T02:43:34.015Z,20.50
2023-03-16T02:46:47.522Z,22.27
2023-03-16T02:49:50.967Z,18.00
2023-03-16T02:52:53.341Z,17.00
2023-03-16T02:55:56.002Z,16.20
2023-03-16T02:58:58.859Z,15.50
2023-03-16T03:02:01.867Z,17.73
2023-03-16T03:05:04.329Z,19.27
2023-03-16T03:08:07.057Z,19.05
2023-03-16T03:11:09.958Z,22.83
2023-03-16T03:14:17.480Z,18.47
2023-03-16T03:17:30.145Z,19.65
2023-03-16T03:20:33.586Z,20.13
2023-03-16T03:23:35.944Z,15.27
2023-03-16T03:26:38.323Z,17.90
2023-03-16T03:29:44.740Z,13.40
2023-03-16T03:32:47.201Z,17.83
2023-03-16T03:35:58.317Z,15.50
2023-03-16T03:39:07.511Z,16.60
2023-03-16T03:42:11.806Z,15.65
2023-03-16T03:45:15.623Z,15.00
2023-03-16T03:48:18.282Z,17.92
2023-03-16T03:51:21.866Z,16.45
2023-03-16T03:54:38.338Z,19.70
2023-03-16T03:57:44.803Z,18.17
2023-03-16T04:00:47.866Z,14.07
2023-03-16T04:03:50.803Z,17.15
2023-03-16T04:06:53.922Z,16.13
2023-03-16T04:09:58.052Z,21.73
2023-03-16T04:13:13.716Z,18.40
2023-03-16T04:16:17.312Z,22.85
2023-03-16T04:19:23.993Z,21.67
2023-03-16T04:22:30.454Z,18.90
2023-03-16T04:25:33.241Z,24.60
2023-03-16T04:28:35.728Z,22.90
2023-03-16T04:31:38.080Z,22.52
2023-03-16T04:34:44.392Z,15.88
2023-03-16T04:37:48.944Z,24.45
2023-03-16T04:40:51.983Z,25.03
2023-03-16T04:43:59.362Z,59.65
2023-03-16T04:47:02.057Z,53.07
2023-03-16T04:50:12.733Z,41.33
2023-03-16T04:53:17.523Z,29.70
2023-03-16T04:56:23.971Z,23.63
2023-03-16T04:59:32.035Z,32.67
2023-03-16T05:03:00.579Z,41.53
2023-03-16T05:06:03.481Z,27.23
2023-03-16T05:09:09.051Z,27.67
2023-03-16T05:12:13.786Z,24.38
2023-03-16T05:15:18.484Z,25.88
2023-03-16T05:18:29.640Z,24.70
2023-03-16T05:21:32.286Z,32.28
2023-03-16T05:24:38.895Z,21.45
2023-03-16T05:27:43.646Z,20.50
2023-03-16T05:30:48.897Z,24.80
2023-03-16T05:33:57.638Z,28.50
2023-03-16T05:37:00.395Z,15.48
2023-03-16T05:40:12.100Z,26.23
2023-03-16T05:43:14.447Z,45.63
2023-03-16T05:46:22.351Z,36.80
2023-03-16T05:49:26.825Z,56.17
2023-03-16T05:52:30.099Z,54.50
2023-03-16T05:55:34.471Z,64.15
2023-03-16T05:58:38.273Z,75.65
2023-03-16T06:01:44.417Z,57.70
2023-03-16T06:04:47.316Z,72.55
2023-03-16T06:07:50.426Z,55.17
2023-03-16T06:10:53.623Z,24.65
2023-03-16T06:13:58.067Z,33.85
2023-03-16T06:17:01.291Z,36.90
2023-03-16T06:20:11.550Z,43.65
2023-03-16T06:23:16.224Z,29.50
2023-03-16T06:26:19.389Z,35.28
2023-03-16T06:29:23.647Z,31.42
2023-03-16T06:32:26.466Z,22.17
2023-03-16T06:35:30.317Z,24.10
2023-03-16T06:38:48.012Z,25.65
2023-03-16T06:42:01.066Z,25.98
2023-03-16T06:45:03.987Z,28.98
2023-03-16T06:48:10.944Z,23.85
2023-03-16T06:51:16.679Z,27.75
2023-03-16T06:54:20.954Z,19.80
2023-03-16T06:57:24.499Z,22.92
2023-03-16T07:00:27.500Z,21.17
2023-03-16T07:03:30.484Z,13.77
2023-03-16T07:06:38.353Z,28.40
2023-03-16T07:09:42.205Z,22.80
2023-03-16T07:12:45.523Z,21.00
2023-03-16T07:15:52.388Z,14.97
2023-03-16T07:18:56.429Z,18.92
2023-03-16T07:21:58.793Z,23.52
2023-03-16T07:25:03.446Z,23.70
2023-03-16T07:28:06.393Z,16.80
2023-03-16T07:31:15.021Z,17.55
2023-03-16T07:34:18.496Z,15.63
2023-03-16T07:37:26.348Z,18.08
2023-03-16T07:40:34.620Z,18.38
2023-03-16T07:43:44.589Z,16.98
2023-03-16T07:46:49.835Z,20.60
2023-03-16T07:49:52.824Z,17.67
2023-03-16T07:52:55.433Z,19.88
2023-03-16T07:55:58.408Z,15.20
2023-03-16T07:59:02.270Z,18.52
2023-03-16T08:02:06.310Z,27.88
2023-03-16T08:05:11.099Z,20.92
2023-03-16T08:08:16.316Z,18.05
2023-03-16T08:11:23.928Z,20.53
2023-03-16T08:14:34.688Z,22.42
2023-03-16T08:17:45.876Z,11.88
2023-03-16T08:20:55.002Z,15.90
2023-03-16T08:23:57.521Z,19.42
2023-03-16T08:27:01.153Z,16.85
2023-03-16T08:30:11.785Z,14.38
2023-03-16T08:33:18.414Z,18.20
2023-03-16T08:36:21.246Z,17.00
2023-03-16T08:39:26.261Z,13.30
2023-03-16T08:42:29.170Z,13.98
2023-03-16T08:45:36.066Z,16.70
2023-03-16T08:48:38.430Z,16.85
2023-03-16T08:51:40.802Z,13.75
2023-03-16T08:54:59.736Z,12.68
2023-03-16T08:58:04.776Z,11.88
2023-03-16T09:01:09.205Z,12.13
2023-03-16T09:04:13.285Z,16.70
2023-03-16T09:10:19.176Z,20.75
2023-03-16T09:13:21.552Z,19.98
2023-03-16T09:16:25.820Z,11.40
2023-03-16T09:19:34.810Z,51.28
2023-03-16T09:22:43.778Z,17.98
2023-03-16T09:25:46.672Z,15.73
2023-03-16T09:28:49.441Z,16.45
2023-03-16T09:31:52.276Z,13.77
2023-03-16T09:34:55.475Z,13.25
2023-03-16T09:38:06.573Z,9.70
2023-03-16T09:41:10.812Z,15.68
2023-03-16T09:44:41.302Z,15.00
2023-03-16T09:47:44.608Z,12.18
2023-03-16T09:50:49.718Z,13.25
2023-03-16T09:53:56.797Z,14.20
2023-03-16T09:57:01.594Z,14.68
2023-03-16T10:00:22.455Z,10.73
2023-03-16T10:03:31.840Z,13.95
2023-03-16T10:06:34.488Z,13.65
2023-03-16T10:09:39.106Z,13.00
2023-03-16T10:12:48.567Z,11.30
2023-03-16T10:15:52.681Z,14.77
2023-03-16T10:22:06.750Z,14.00
2023-03-16T10:25:13.174Z,11.02
2023-03-16T10:28:21.649Z,12.85
2023-03-16T10:31:24.830Z,11.15
2023-03-16T10:34:27.498Z,9.82
2023-03-16T10:37:31.476Z,15.77
2023-03-16T10:40:38.829Z,15.60
2023-03-16T10:43:42.199Z,10.98
2023-03-16T10:46:49.563Z,13.23
2023-03-16T10:49:52.068Z,12.88
2023-03-16T10:52:57.112Z,16.42
2023-03-16T10:56:02.843Z,11.73
2023-03-16T10:59:15.466Z,15.57
2023-03-16T11:02:23.936Z,14.85
2023-03-16T11:05:35.565Z,16.15
2023-03-16T11:08:39.998Z,11.93
2023-03-16T11:11:49.613Z,13.82
2023-03-16T11:14:52.230Z,12.68
2023-03-16T11:17:54.818Z,15.20
2023-03-16T11:20:59.076Z,19.65
2023-03-16T11:24:04.409Z,14.13
2023-03-16T11:27:18.218Z,17.00
2023-03-16T11:31:01.741Z,12.77
2023-03-16T11:34:04.256Z,12.38
2023-03-16T11:37:32.706Z,9.57
2023-03-16T11:41:03.995Z,10.13
2023-03-16T11:44:37.118Z,12.82
2023-03-16T11:48:12.363Z,10.20
2023-03-16T11:51:33.632Z,9.32
2023-03-16T11:55:15.417Z,9.85
2023-03-16T11:58:32.650Z,10.82
2023-03-16T12:02:05.323Z,11.95
2023-03-16T12:05:43.868Z,12.07
2023-03-16T12:09:05.477Z,10.32
2023-03-16T12:12:19.614Z,9.05
2023-03-16T12:15:40.302Z,8.23
2023-03-16T12:18:46.907Z,11.57
2023-03-16T12:21:57.454Z,11.85
2023-03-16T12:24:59.954Z,10.50
2023-03-16T12:28:07.713Z,8.27
2023-03-16T12:31:18.029Z,9.23
2023-03-16T12:34:34.673Z,14.00
2023-03-16T12:37:57.503Z,10.57
2023-03-16T12:40:59.929Z,10.50
2023-03-16T12:44:12.925Z,9.43
2023-03-16T12:47:31.447Z,9.93
2023-03-16T12:50:34.456Z,9.93
2023-03-16T12:53:44.910Z,7.65
2023-03-16T12:56:49.239Z,9.30
2023-03-16T12:59:58.896Z,8.38
2023-03-16T13:03:01.671Z,5.75
2023-03-16T13:06:04.508Z,8.23
2023-03-16T13:09:07.536Z,9.32
2023-03-16T13:12:10.604Z,6.03
2023-03-16T13:15:23.521Z,5.35
2023-03-16T13:18:35.410Z,8.68
2023-03-16T13:21:41.137Z,4.97
2023-03-16T13:24:52.896Z,4.40
2023-03-16T13:27:56.609Z,4.97
2023-03-16T13:30:59.413Z,6.68
2023-03-16T13:34:02.926Z,7.85
2023-03-16T13:37:05.438Z,9.43
2023-03-16T13:40:20.974Z,5.20
2023-03-16T13:43:28.900Z,9.10
2023-03-16T13:46:31.355Z,6.90
2023-03-16T13:49:34.308Z,6.70
2023-03-16T13:52:36.743Z,5.75
2023-03-16T13:55:39.529Z,5.20
2023-03-16T13:58:46.230Z,4.80
2023-03-16T14:01:49.306Z,4.43
2023-03-16T14:04:51.701Z,3.20
2023-03-16T14:07:55.289Z,3.95
2023-03-16T14:11:01.082Z,4.03
2023-03-16T14:14:17.690Z,3.78
2023-03-16T14:17:21.951Z,4.85
2023-03-16T14:23:33.691Z,4.25
2023-03-16T14:26:46.477Z,5.38
2023-03-16T14:29:55.312Z,3.90
2023-03-16T14:33:06.931Z,4.72
2023-03-16T14:36:20.221Z,4.85
2023-03-16T14:39:22.603Z,6.93
2023-03-16T14:42:29.063Z,3.17
2023-03-16T14:45:36.075Z,2.75
2023-03-16T14:48:38.836Z,5.22
2023-03-16T14:51:42.056Z,7.00
2023-03-16T14:54:44.485Z,16.77
2023-03-16T14:57:47.332Z,9.60
2023-03-16T15:00:54.522Z,7.43
2023-03-16T15:03:57.320Z,14.20
2023-03-16T15:06:59.676Z,7.05
2023-03-16T15:10:10.015Z,3.88
2023-03-16T15:13:24.484Z,13.40
2023-03-16T15:19:30.739Z,11.70
2023-03-16T15:22:38.533Z,10.15
2023-03-16T15:25:45.930Z,6.65
2023-03-16T15:28:48.349Z,9.77
2023-03-16T15:31:53.395Z,3.00
2023-03-16T15:34:57.916Z,5.18
2023-03-16T15:38:02.289Z,4.68
2023-03-16T15:41:04.730Z,4.20
2023-03-16T15:44:13.387Z,5.93
2023-03-16T15:47:16.543Z,4.53
2023-03-16T15:50:22.018Z,6.20
2023-03-16T15:53:32.641Z,7.30
2023-03-16T15:56:51.253Z,9.45
2023-03-16T15:59:56.818Z,7.82
2023-03-16T16:03:00.195Z,4.25
2023-03-16T16:06:02.888Z,6.65
2023-03-16T16:09:07.997Z,5.97
2023-03-16T16:12:14.573Z,6.90
2023-03-16T16:15:29.827Z,6.13
2023-03-16T16:18:36.660Z,6.82
2023-03-16T16:21:38.992Z,6.60
2023-03-16T16:24:41.329Z,7.60
2023-03-16T16:27:43.701Z,8.82
2023-03-16T16:30:46.469Z,7.22
2023-03-16T16:33:49.139Z,5.80
2023-03-16T16:36:51.986Z,22.83
2023-03-16T16:39:54.336Z,25.08
2023-03-16T16:43:05.430Z,32.28
2023-03-16T16:46:15.679Z,44.88
2023-03-16T16:49:30.703Z,71.70
2023-03-16T16:52:33.396Z,36.17
2023-03-16T16:55:35.843Z,29.45
2023-03-16T16:58:38.725Z,23.50
2023-03-16T17:01:42.035Z,23.27
2023-03-16T17:04:44.400Z,12.80
2023-03-16T17:07:47.155Z,13.75
2023-03-16T17:10:49.874Z,12.15
2023-03-16T17:13:52.819Z,13.98
2023-03-16T17:16:55.342Z,16.95
2023-03-16T17:19:57.856Z,14.27
2023-03-16T17:23:00.449Z,13.25
2023-03-16T17:26:12.208Z,17.90
2023-03-16T17:29:34.705Z,19.45
2023-03-16T17:32:37.121Z,18.67
2023-03-16T17:35:42.246Z,21.85
2023-03-16T17:38:44.648Z,19.13
2023-03-16T17:41:49.820Z,19.42
2023-03-16T17:44:53.708Z,17.75
2023-03-16T17:47:56.489Z,18.10
2023-03-16T17:50:58.966Z,20.40
2023-03-16T17:54:01.577Z,111.75
2023-03-16T17:57:04.473Z,64.82
2023-03-16T18:00:22.981Z,35.70
2023-03-16T18:03:29.990Z,30.92
2023-03-16T18:06:33.009Z,27.95
2023-03-16T18:09:35.664Z,28.92
2023-03-16T18:12:38.179Z,31.85
2023-03-16T18:15:40.676Z,35.03
2023-03-16T18:18:43.454Z,38.88
2023-03-16T18:21:45.925Z,39.45
2023-03-16T18:24:49.321Z,33.72
2023-03-16T18:27:51.634Z,23.35
2023-03-16T18:30:54.339Z,26.95
2023-03-16T18:33:59.706Z,31.27
2023-03-16T18:37:06.307Z,28.85
2023-03-16T18:40:13.570Z,30.92
2023-03-16T18:43:17.260Z,26.98
2023-03-16T18:46:19.775Z,35.30
2023-03-16T18:49:30.950Z,42.33
2023-03-16T18:52:34.741Z,37.85
2023-03-16T18:58:49.176Z,40.88
2023-03-16T19:01:52.552Z,43.63
2023-03-16T19:04:59.276Z,36.67
2023-03-16T19:08:03.622Z,35.47
2023-03-16T19:11:06.113Z,39.08
2023-03-16T19:14:22.465Z,46.70
2023-03-16T19:17:24.881Z,43.83
2023-03-16T19:20:30.478Z,50.25
2023-03-16T19:23:36.098Z,40.25
2023-03-16T19:26:39.142Z,52.05
2023-03-16T19:29:41.521Z,52.23
2023-03-16T19:32:43.923Z,64.85
2023-03-16T19:35:51.907Z,57.00
2023-03-16T19:38:55.060Z,59.53
2023-03-16T19:41:59.158Z,72.18
2023-03-16T19:45:02.175Z,54.40
2023-03-16T19:48:12.780Z,55.88
2023-03-16T19:51:17.560Z,62.15
2023-03-16T19:54:28.531Z,57.50
2023-03-16T19:57:31.937Z,67.65
2023-03-16T20:00:34.873Z,58.40
2023-03-16T20:03:38.718Z,53.43
2023-03-16T20:06:41.066Z,56.90
2023-03-16T20:09:44.166Z,68.35
2023-03-16T20:12:47.597Z,46.87
2023-03-16T20:18:57.866Z,52.90
2023-03-16T20:22:00.791Z,59.17
2023-03-16T20:25:05.401Z,66.07
2023-03-16T20:28:18.067Z,62.35
2023-03-16T20:31:25.192Z,62.17
2023-03-16T20:34:30.885Z,62.67
2023-03-16T20:37:33.939Z,60.55
2023-03-16T20:40:36.750Z,63.22
2023-03-16T20:43:39.371Z,57.25
2023-03-16T20:46:44.721Z,56.97
2023-03-16T20:49:47.786Z,54.90
2023-03-16T20:52:51.017Z,52.88
2023-03-16T20:55:54.717Z,37.90
2023-03-16T20:58:57.151Z,58.78
2023-03-16T21:02:01.865Z,51.42
2023-03-16T21:05:06.290Z,43.47
2023-03-16T21:08:09.041Z,38.38
2023-03-16T21:11:39.435Z,44.00
2023-03-16T21:14:42.072Z,39.42
2023-03-16T21:17:44.475Z,38.92
2023-03-16T21:20:49.284Z,39.78
2023-03-16T21:23:51.897Z,50.67
2023-03-16T21:26:54.203Z,40.63
2023-03-16T21:29:58.954Z,64.95
2023-03-16T21:33:02.143Z,43.15
2023-03-16T21:36:08.229Z,55.83
2023-03-16T21:39:19.826Z,55.38
2023-03-16T21:42:22.258Z,61.08
2023-03-16T21:45:25.603Z,44.20
2023-03-16T21:48:37.447Z,43.70
2023-03-16T21:51:40.265Z,44.85
2023-03-16T21:54:42.938Z,61.10
2023-03-16T21:57:45.686Z,64.63
2023-03-16T22:00:48.695Z,59.75
2023-03-16T22:03:57.697Z,65.18
2023-03-16T22:07:00.014Z,54.17
2023-03-16T22:10:02.391Z,56.97
2023-03-16T22:13:05.263Z,53.42
2023-03-16T22:16:15.069Z,52.80
2023-03-16T22:19:18.216Z,62.33
2023-03-16T22:22:21.386Z,44.20
2023-03-16T22:25:27.073Z,34.63
2023-03-16T22:28:29.728Z,53.50
2023-03-16T22:31:34.806Z,47.53
2023-03-16T22:34:43.954Z,43.78
2023-03-16T22:37:46.400Z,46.45
2023-03-16T22:40:48.957Z,52.22
2023-03-16T22:43:51.448Z,47.28
2023-03-16T22:46:53.863Z,50.67
2023-03-16T22:49:56.244Z,49.80
2023-03-16T22:53:01.003Z,50.45
2023-03-16T22:56:03.950Z,48.15
2023-03-16T22:59:07.768Z,55.60
2023-03-16T23:02:16.675Z,46.58
2023-03-16T23:05:22.551Z,47.72
2023-03-16T23:08:26.782Z,52.05
2023-03-16T23:11:32.697Z,57.03
2023-03-16T23:14:38.245Z,46.30
2023-03-16T23:17:40.798Z,44.67
2023-03-16T23:20:43.398Z,44.30
2023-03-16T23:24:00.686Z,49.55
2023-03-16T23:27:03.525Z,45.25
2023-03-16T23:30:25.859Z,48.95
2023-03-16T23:33:28.305Z,47.35
2023-03-16T23:36:30.731Z,42.90
2023-03-16T23:39:33.149Z,50.30
2023-03-16T23:42:36.297Z,48.58
2023-03-16T23:45:44.672Z,45.92
2023-03-16T23:48:48.877Z,43.45
2023-03-16T23:51:51.700Z,42.42
2023-03-16T23:54:53.987Z,37.73
2023-03-16T23:57:56.524Z,38.75
